Time;durP1;ratioP1;P1;durP2;ratioP2;P2;SDS_P1;SDS_P2;PMS_P1;PMS_P2;Temp;Humidity;BMP_temperature;BMP_pressure;BME280_temperature;BME280_humidity;BME280_pressure;Samples;Min_cycle;Max_cycle;Signal;HPM_P1;HPM_P2
2023/04/25 00:04:33;;;;;;;3.78;1.20;;;6.70;29.60;;;;;;20804656;28;20033;-43
2023/04/25 00:14:35;;;;;;;4.38;1.02;;;6.70;23.50;;;;;;20803351;28;20040;-43
2023/04/25 00:24:36;;;;;;;5.50;1.23;;;6.70;12.00;;;;;;20805208;28;20489;-44
2023/04/25 00:34:37;;;;;;;4.50;1.15;;;6.60;14.30;;;;;;20805717;28;20459;-43
2023/04/25 00:44:39;;;;;;;2.80;1.08;;;6.40;4.30;;;;;;20801091;28;20045;-43
2023/04/25 00:54:40;;;;;;;6.88;2.00;;;6.20;2.10;;;;;;20802412;28;20068;-43
2023/04/25 01:04:42;;;;;;;9.25;1.33;;;6.00;6.00;;;;;;20799535;28;20045;-43
2023/04/25 01:14:44;;;;;;;5.38;1.92;;;5.80;10.40;;;;;;20796568;28;20200;-43
2023/04/25 01:24:45;;;;;;;6.38;2.53;;;5.70;10.10;;;;;;20801133;28;20037;-43
2023/04/25 01:34:46;;;;;;;3.90;1.17;;;5.60;15.60;;;;;;20797223;28;20503;-43
2023/04/25 01:44:47;;;;;;;4.10;1.08;;;5.60;20.90;;;;;;20796188;28;22610;-43
2023/04/25 01:54:50;;;;;;;2.65;0.88;;;5.40;14.60;;;;;;20789215;28;20413;-43
2023/04/25 02:04:51;;;;;;;3.05;1.20;;;5.30;13.20;;;;;;20800949;28;20530;-43
2023/04/25 02:14:52;;;;;;;2.78;1.58;;;5.20;13.90;;;;;;20790874;28;20037;-43
2023/04/25 02:24:54;;;;;;;4.72;2.08;;;5.10;15.10;;;;;;20784115;28;20025;-43
2023/04/25 02:34:58;;;;;;;3.60;1.98;;;4.90;14.80;;;;;;20793162;28;20041;-43
2023/04/25 02:44:59;;;;;;;5.00;1.58;;;5.00;23.30;;;;;;20799285;28;20171;-43
2023/04/25 02:55:01;;;;;;;7.22;2.00;;;5.10;38.10;;;;;;20789244;28;20045;-43
2023/04/25 03:05:03;;;;;;;6.05;2.30;;;5.30;48.40;;;;;;20791658;28;20033;-43
2023/04/25 03:15:05;;;;;;;3.70;1.20;;;5.40;34.00;;;;;;20795366;28;20103;-43
2023/04/25 03:25:06;;;;;;;3.72;1.20;;;5.50;30.10;;;;;;20787110;28;20370;-43
2023/04/25 03:35:08;;;;;;;2.08;0.80;;;5.40;20.20;;;;;;20794193;28;20044;-43
2023/04/25 03:45:10;;;;;;;3.72;0.82;;;5.30;23.30;;;;;;20804883;28;20053;-43
2023/04/25 03:55:11;;;;;;;4.80;1.55;;;5.40;37.40;;;;;;20795820;28;20048;-43
2023/04/25 04:05:12;;;;;;;2.17;0.75;;;5.30;48.90;;;;;;20804093;28;20416;-43
2023/04/25 04:15:14;;;;;;;5.10;1.63;;;5.30;58.90;;;;;;20800886;28;20045;-43
2023/04/25 04:25:15;;;;;;;3.67;0.93;;;5.30;59.60;;;;;;20807300;28;20071;-43
2023/04/25 04:35:17;;;;;;;3.97;1.35;;;5.20;49.20;;;;;;20801839;28;20098;-43
2023/04/25 04:45:19;;;;;;;8.25;0.70;;;5.10;38.80;;;;;;20799425;28;20813;-43
2023/04/25 04:55:20;;;;;;;3.75;1.00;;;5.10;22.90;;;;;;20802572;28;20052;-44
2023/04/25 05:05:21;;;;;;;4.03;1.48;;;5.20;27.10;;;;;;20797214;28;20397;-43
2023/04/25 05:15:22;;;;;;;2.75;1.10;;;5.30;29.90;;;;;;20797219;28;20045;-43
2023/04/25 05:25:23;;;;;;;2.45;1.25;;;5.40;29.20;;;;;;20803580;28;20033;-43
2023/04/25 05:35:25;;;;;;;3.80;1.67;;;5.60;24.90;;;;;;20813353;28;20060;-43
2023/04/25 05:45:26;;;;;;;1.45;0.68;;;5.70;20.80;;;;;;20819017;28;20045;-43
2023/04/25 05:55:27;;;;;;;1.63;0.82;;;5.80;20.70;;;;;;20793581;28;20408;-44
2023/04/25 06:05:29;;;;;;;2.10;0.60;;;5.80;18.80;;;;;;20815976;28;20373;-43
2023/04/25 06:15:32;;;;;;;2.40;1.25;;;6.00;21.30;;;;;;20803376;28;20061;-43
2023/04/25 06:25:33;;;;;;;3.83;0.95;;;6.10;20.90;;;;;;20813736;28;20038;-43
2023/04/25 06:35:34;;;;;;;3.40;1.02;;;6.50;17.10;;;;;;20818102;28;20044;-43
2023/04/25 06:45:35;;;;;;;6.78;1.65;;;7.00;3.30;;;;;;20801036;28;20065;-43
2023/04/25 06:55:36;;;;;;;4.13;1.00;;;7.70;1.00;;;;;;20811898;28;20534;-43
2023/04/25 07:05:38;;;;;;;9.20;1.33;;;7.80;1.00;;;;;;20813868;28;20052;-43
2023/04/25 07:15:39;;;;;;;1.50;0.70;;;8.00;1.00;;;;;;20814827;28;20033;-43
2023/04/25 07:25:40;;;;;;;1.80;0.43;;;7.80;1.00;;;;;;20810301;28;20496;-44
2023/04/25 07:35:41;;;;;;;3.22;0.65;;;7.30;1.00;;;;;;20812559;28;20558;-43
2023/04/25 07:45:43;;;;;;;1.38;0.40;;;7.40;1.00;;;;;;20822025;28;20053;-44
2023/04/25 07:55:44;;;;;;;1.10;0.30;;;7.40;1.00;;;;;;20814472;28;20041;-43
2023/04/25 08:05:45;;;;;;;1.77;0.35;;;7.60;1.00;;;;;;20810998;28;20052;-43
2023/04/25 08:15:47;;;;;;;2.45;0.70;;;8.10;1.00;;;;;;20824009;28;20045;-43
2023/04/25 08:25:48;;;;;;;6.63;0.77;;;8.80;1.00;;;;;;20802057;28;20037;-44
2023/04/25 08:35:49;;;;;;;1.23;0.50;;;9.10;1.00;;;;;;20814641;28;20049;-43
2023/04/25 08:45:54;;;;;;;1.90;0.68;;;9.30;1.00;;;;;;20812082;28;20067;-45
2023/04/25 08:55:57;;;;;;;1.95;0.98;;;9.70;1.00;;;;;;20815493;28;20063;-44
2023/04/25 09:05:59;;;;;;;5.63;1.00;;;9.70;1.00;;;;;;20806991;28;20033;-45
2023/04/25 09:16:00;;;;;;;1.33;0.30;;;9.70;1.00;;;;;;20809934;28;20132;-44
2023/04/25 09:26:01;;;;;;;1.85;0.40;;;10.50;1.00;;;;;;20813238;28;20037;-44
2023/04/25 09:36:08;;;;;;;4.03;0.95;;;10.70;1.00;;;;;;20806368;28;20041;-44
2023/04/25 09:46:11;;;;;;;13.50;1.50;;;10.30;1.00;;;;;;20805356;28;20052;-44
2023/04/25 09:56:13;;;;;;;2.45;0.93;;;9.40;1.00;;;;;;20802354;28;20041;-43
2023/04/25 10:06:19;;;;;;;1.50;0.30;;;9.20;1.00;;;;;;20811898;28;20135;-44
2023/04/25 10:16:21;;;;;;;0.93;0.40;;;9.30;1.00;;;;;;20795659;28;20037;-44
2023/04/25 10:26:24;;;;;;;1.65;0.68;;;9.80;1.00;;;;;;20799457;28;20040;-43
2023/04/25 10:36:28;;;;;;;1.33;0.40;;;10.20;1.00;;;;;;20811909;28;20041;-44
2023/04/25 10:46:34;;;;;;;3.20;0.70;;;11.00;1.00;;;;;;20818583;28;20599;-44
2023/04/25 10:56:36;;;;;;;1.75;0.30;;;10.80;1.00;;;;;;20769627;28;20591;-44
2023/04/25 11:07:07;;;;;;;0.55;0.20;;;10.50;1.00;;;;;;20820704;28;20045;-44
2023/04/25 11:17:10;;;;;;;2.03;0.40;;;11.30;1.00;;;;;;20824933;28;20045;-43
2023/04/25 11:27:12;;;;;;;2.58;0.82;;;11.40;1.00;;;;;;20819429;28;20071;-43
2023/04/25 11:37:14;;;;;;;1.48;0.73;;;11.40;1.00;;;;;;20825584;28;20714;-43
2023/04/25 11:47:15;;;;;;;4.00;1.13;;;10.80;1.00;;;;;;20811340;28;20058;-42
2023/04/25 11:57:19;;;;;;;1.15;0.40;;;10.00;1.00;;;;;;20821124;28;20029;-43
2023/04/25 12:07:22;;;;;;;2.25;0.30;;;9.10;1.00;;;;;;20810712;28;20055;-43
2023/04/25 12:17:23;;;;;;;1.35;0.30;;;8.80;1.00;;;;;;20803748;28;20026;-43
2023/04/25 12:27:26;;;;;;;1.23;0.50;;;9.30;1.00;;;;;;20823953;28;20488;-42
2023/04/25 12:37:28;;;;;;;3.83;0.85;;;9.70;1.00;;;;;;20813265;28;20385;-43
2023/04/25 12:47:29;;;;;;;1.50;0.38;;;10.20;1.00;;;;;;20813917;28;20049;-43
2023/04/25 12:57:30;;;;;;;22.95;0.60;;;10.70;1.00;;;;;;20816686;28;20041;-43
2023/04/25 13:07:31;;;;;;;1.42;0.50;;;12.40;1.00;;;;;;20810519;28;20041;-43
2023/04/25 13:17:32;;;;;;;2.35;0.95;;;13.30;1.00;;;;;;20796480;28;20524;-43
2023/04/25 13:27:35;;;;;;;1.30;0.40;;;13.80;1.00;;;;;;20810157;28;20041;-43
2023/04/25 13:37:37;;;;;;;1.27;0.68;;;14.60;1.00;;;;;;20806304;28;20462;-41
2023/04/25 13:47:38;;;;;;;2.05;0.52;;;14.50;1.00;;;;;;20803618;28;20053;-43
2023/04/25 13:57:39;;;;;;;6.30;1.13;;;12.90;1.00;;;;;;20813979;28;20159;-43
2023/04/25 14:07:40;;;;;;;4.13;1.08;;;12.90;1.00;;;;;;20804964;28;20345;-43
2023/04/25 14:17:41;;;;;;;9.20;1.13;;;12.80;1.00;;;;;;20785244;28;20308;-43
2023/04/25 14:27:43;;;;;;;2.30;0.88;;;11.30;1.00;;;;;;20792773;28;20053;-43
2023/04/25 14:37:44;;;;;;;1.67;0.50;;;10.30;1.00;;;;;;20765508;28;20433;-43
2023/04/25 14:47:46;;;;;;;0.80;0.30;;;11.00;1.00;;;;;;20807935;28;20167;-43
2023/04/25 14:57:47;;;;;;;2.75;0.40;;;11.30;1.00;;;;;;20809059;28;20053;-43
2023/04/25 15:07:48;;;;;;;2.17;0.70;;;11.20;1.00;;;;;;20799201;28;20465;-43
2023/04/25 15:17:50;;;;;;;5.07;1.10;;;11.20;1.00;;;;;;20793091;28;20448;-43
2023/04/25 15:27:51;;;;;;;2.30;0.63;;;10.50;1.00;;;;;;20797127;28;20048;-43
2023/04/25 15:37:52;;;;;;;1.77;0.60;;;9.90;1.00;;;;;;20810463;28;20569;-43
2023/04/25 15:47:55;;;;;;;0.95;0.20;;;10.10;1.00;;;;;;20791526;28;20059;-43
2023/04/25 15:57:56;;;;;;;3.72;0.40;;;10.30;1.00;;;;;;20812688;28;20029;-43
2023/04/25 16:07:57;;;;;;;1.42;0.93;;;10.00;1.00;;;;;;20812283;28;20061;-43
2023/04/25 16:17:59;;;;;;;3.00;0.98;;;10.20;1.00;;;;;;20804926;28;20041;-43
2023/04/25 16:28:00;;;;;;;2.83;0.80;;;10.60;1.00;;;;;;20796581;28;20052;-43
2023/04/25 16:38:01;;;;;;;1.70;0.80;;;10.40;1.00;;;;;;20797001;28;20519;-43
2023/04/25 16:48:02;;;;;;;1.88;0.43;;;10.20;1.00;;;;;;20791434;28;20045;-42
2023/04/25 16:58:03;;;;;;;1.10;0.40;;;10.10;1.00;;;;;;20792552;28;20033;-42
2023/04/25 17:08:06;;;;;;;2.60;1.08;;;10.10;1.00;;;;;;20794559;28;20037;-42
2023/04/25 17:18:07;;;;;;;2.95;0.82;;;9.90;1.00;;;;;;20775957;28;20037;-42
2023/04/25 17:28:08;;;;;;;1.80;0.80;;;9.70;1.00;;;;;;20796648;28;20504;-43
2023/04/25 17:38:09;;;;;;;2.13;1.13;;;9.30;1.00;;;;;;20806534;28;20037;-42
2023/04/25 17:48:10;;;;;;;1.60;0.60;;;9.00;1.00;;;;;;20805854;28;20033;-42
2023/04/25 17:58:11;;;;;;;2.40;1.10;;;8.80;1.00;;;;;;20811422;28;20041;-42
2023/04/25 18:08:12;;;;;;;3.70;0.90;;;8.40;1.00;;;;;;20814171;28;20448;-42
2023/04/25 18:18:19;;;;;;;4.47;0.80;;;8.30;1.00;;;;;;20808846;28;20056;-42
2023/04/25 18:28:21;;;;;;;4.28;0.80;;;8.20;1.00;;;;;;20794904;28;20425;-42
2023/04/25 18:38:22;;;;;;;6.68;1.38;;;8.00;1.00;;;;;;20787763;28;20061;-42
2023/04/25 18:48:23;;;;;;;1.80;0.70;;;7.90;1.00;;;;;;20806692;28;20516;-42
2023/04/25 18:58:25;;;;;;;2.25;1.10;;;7.70;1.00;;;;;;20775058;28;20120;-42
2023/04/25 19:08:26;;;;;;;3.05;1.40;;;7.60;1.00;;;;;;20810527;28;20717;-43
2023/04/25 19:18:27;;;;;;;2.20;0.90;;;7.40;1.00;;;;;;20816653;28;20037;-42
2023/04/25 19:28:29;;;;;;;6.22;1.08;;;7.10;1.00;;;;;;20817247;28;20041;-42
2023/04/25 19:38:30;;;;;;;4.05;1.17;;;6.90;1.00;;;;;;20821063;28;20041;-42
2023/04/25 19:48:31;;;;;;;3.42;1.77;;;6.80;1.00;;;;;;20815284;28;20057;-42
2023/04/25 19:58:33;;;;;;;2.20;1.00;;;6.50;1.00;;;;;;20777628;28;20041;-42
2023/04/25 20:08:35;;;;;;;2.00;0.95;;;6.50;1.00;;;;;;20800988;28;21584;-43
2023/04/25 20:18:36;;;;;;;2.97;0.90;;;6.60;1.00;;;;;;20815928;28;20384;-42
2023/04/25 20:28:37;;;;;;;2.47;1.35;;;6.60;1.00;;;;;;20797963;28;20045;-42
2023/04/25 20:38:39;;;;;;;3.42;1.77;;;6.70;1.00;;;;;;20811091;28;20034;-42
2023/04/25 20:48:40;;;;;;;4.90;2.30;;;6.50;1.00;;;;;;20803256;28;20055;-43
2023/04/25 20:58:41;;;;;;;5.63;2.05;;;6.20;1.00;;;;;;20808566;28;20037;-42
2023/04/25 21:08:42;;;;;;;2.60;1.60;;;6.00;1.00;;;;;;20783681;28;20045;-42
2023/04/25 21:18:43;;;;;;;4.18;1.63;;;5.70;1.00;;;;;;20796541;28;20056;-42
2023/04/25 21:28:45;;;;;;;5.72;2.33;;;5.70;1.00;;;;;;20781045;28;20282;-42
2023/04/25 21:38:47;;;;;;;4.68;2.20;;;5.60;1.00;;;;;;20795159;28;20468;-42
2023/04/25 21:48:48;;;;;;;5.43;2.00;;;5.40;1.00;;;;;;20806088;28;20038;-42
2023/04/25 21:58:49;;;;;;;11.20;3.25;;;5.30;1.00;;;;;;20794809;28;20037;-42
2023/04/25 22:08:50;;;;;;;4.70;1.98;;;5.20;1.00;;;;;;20792692;28;21183;-42
2023/04/25 22:18:51;;;;;;;7.00;1.70;;;5.20;1.00;;;;;;20789101;28;20041;-42
2023/04/25 22:28:54;;;;;;;5.95;2.67;;;5.10;1.00;;;;;;20790723;28;20048;-42
2023/04/25 22:38:55;;;;;;;4.13;2.17;;;5.00;1.00;;;;;;20792161;28;20030;-42
2023/04/25 22:48:56;;;;;;;4.47;2.20;;;4.90;1.00;;;;;;20796082;28;20036;-42
2023/04/25 22:58:58;;;;;;;6.03;2.25;;;4.90;1.00;;;;;;20790417;28;20044;-42
2023/04/25 23:08:59;;;;;;;5.30;2.65;;;4.80;1.00;;;;;;20785565;28;20103;-42
2023/04/25 23:19:00;;;;;;;4.78;1.88;;;4.60;1.00;;;;;;20792513;28;20163;-42
2023/04/25 23:29:01;;;;;;;7.00;1.90;;;4.70;1.00;;;;;;20794873;28;20084;-42
2023/04/25 23:39:03;;;;;;;3.97;1.42;;;4.70;1.00;;;;;;20787060;28;20108;-43
2023/04/25 23:49:05;;;;;;;7.25;2.05;;;4.60;1.00;;;;;;20790905;28;20048;-42
2023/04/25 23:59:09;;;;;;;3.25;1.58;;;4.40;1.00;;;;;;20787507;28;20037;-42
